Terminal Aerodrome Forecast
Issued by NWS

Home | Current Version | Previous Version | Text Only | Print | Product List | Glossary On
Versions: 1 2 3 4 5 6 7 8 9 10 11 12 13 14 15 16 17 18 19 20 21 22 23 24 25 26 27 28 29 30 31
000
FTUS41 KPHI 180520
TAFMIV
TAF
KMIV 180520Z 1806/1906 VRB03KT 5SM -SN BKN025 OVC040
      TEMPO 1806/1809 3SM -SN OVC015
     FM180900 VRB04KT 4SM -SN OVC012
      TEMPO 1809/1812 2SM -SN OVC008
     FM181300 35005KT 6SM BR OVC008
     FM181800 28005KT P6SM OVC010
     FM182200 28007KT P6SM BKN025
     FM190100 28007KT P6SM OVC015=

USA.gov is the U.S. government's official web portal to all federal, state and local government web resources and services.